Station: Kuitpo  

  Atmospheric Gas Attenuation - ITU Rec 676-11   ----------------- dB/100km -----------------
Date Time Temp RH % AH g/m3 Dew Point Wind Direction Speed kph Gust kph Barometer mB Rainfall Since 9am 24GHz 47GHz 76GHz 122GHz 134GHz 241GHz
08/05 12:00 12.6 100 11.06 12.6 13 24 1029.2 0.2 24.9 31.1 51.8 136.1 136.2 470.2
08/05 11:50 12.9 100 11.27 12.9 15 19 1029.3 0.2 25.3 31.4 52.5 138.1 138.7 479.2
08/05 11:40 12.7 100 11.13 12.7 13 17 1029.5 0.2 25.1 31.2 52.0 136.8 137.0 473.3
08/05 11:30 12.8 100 11.2 12.8 13 20 1029.5 0 25.2 31.3 52.3 137.5 137.9 476.3
08/05 11:20 12.7 100 11.13 12.7 13 15 1029.7 0 25.1 31.2 52.0 136.8 137.1 473.3
08/05 11:10 12.6 99 10.95 12.4 9 15 1029.8 0 24.7 31.0 51.3 134.8 134.6 464.7
08/05 11:00 12.6 99 10.95 12.4 11 19 1029.8 0 24.7 31.0 51.3 134.8 134.6 464.7
08/05 10:50 12.6 99 10.95 12.4 13 13 1029.9 0 24.7 31.0 51.3 134.9 134.6 464.7
08/05 10:40 12.5 98 10.78 12.2 13 20 1030 0 24.3 30.7 50.6 133.0 132.3 456.6
08/05 10:30 12.2 97 10.47 11.7 11 20 1029.9 0 23.7 30.2 49.4 129.8 128.3 442.5
08/05 10:20 12.2 97 10.47 11.7 13 17 1029.9 0 23.7 30.2 49.4 129.8 128.3 442.5
08/05 10:10 11.9 97 10.27 11.4 15 20 1029.9 0 23.2 30.0 48.7 128.0 125.8 434.0
08/05 10:00 12.1 96 10.3 11.5 15 26 1029.7 0 23.3 30.0 48.7 128.0 125.9 434.4
08/05 09:50 11.9 95 10.06 11.1 17 24 1029.8 0 22.8 29.6 47.8 125.5 122.8 423.4
08/05 09:40 11.8 95 10 11 15 19 1029.8 0 22.7 29.5 47.6 124.9 122.1 420.9
08/05 09:30 11.8 94 9.89 10.9 13 22 1029.7 0 22.4 29.3 47.1 123.6 120.5 415.3
08/05 09:20 11.8 94 9.89 10.9 13 17 1029.8 0 22.4 29.3 47.1 123.6 120.5 415.3
08/05 09:10 11.3 94 9.59 10.4 11 15 1029.7 0 21.8 29.0 46.1 120.9 117.0 402.9
08/05 09:00 11.2 95 9.63 10.4 13 22 1029.6 0 21.9 29.1 46.3 121.5 117.7 405.4
08/05 08:50 11.2 95 9.63 10.4 17 20 1029.7 0 21.9 29.1 46.3 121.5 117.7 405.4
08/05 08:40 11.1 94 9.47 10.2 17 24 1029.6 0 21.6 28.8 45.7 119.8 115.5 397.9
08/05 08:30 11 92 9.21 9.8 17 26 1029.5 0 21.0 28.4 44.6 117.0 112.0 385.4
08/05 08:20 11 90 9.01 9.4 13 19 1029.5 0 20.6 28.1 43.7 114.7 109.1 375.5
08/05 08:10 11.1 88 8.87 9.2 13 15 1029.5 0 20.3 27.8 43.1 112.9 107.0 368.2
08/05 08:00 11.3 86 8.77 9 15 24 1029.3 0 20.1 27.5 42.5 111.5 105.3 362.3
08/05 07:50 11.3 85 8.67 8.9 19 24 1029.3 0 19.8 27.4 42.1 110.4 104.0 357.4
08/05 07:40 11.3 84 8.57 8.7 13 20 1029.1 0 19.6 27.2 41.7 109.2 102.6 352.5
08/05 07:30 11.2 84 8.52 8.6 15 24 1028.9 0 19.5 27.1 41.5 108.8 102.0 350.5
08/05 07:20 11.2 84 8.52 8.6 13 15 1028.8 0 19.5 27.1 41.5 108.8 102.0 350.5
08/05 07:10 11.1 84 8.46 8.5 20 26 1028.6 0 19.4 27.1 41.3 108.2 101.3 348.0
08/05 07:00 11.1 84 8.46 8.5 17 30 1028.5 0 19.4 27.1 41.3 108.2 101.3 347.9
08/05 06:50 11 85 8.51 8.6 13 19 1028.5 0 19.5 27.2 41.6 108.9 102.1 350.8
08/05 06:40 11 85 8.51 8.6 11 15 1028.3 0 19.5 27.2 41.6 108.9 102.1 350.8
08/05 06:30 11 85 8.51 8.6 13 19 1028.2 0 19.5 27.2 41.5 108.9 102.1 350.7
08/05 06:20 10.9 86 8.56 8.7 13 17 1028.3 0 19.6 27.3 41.8 109.6 102.9 353.6
08/05 06:10 10.8 87 8.6 8.7 13 17 1028.2 0 19.7 27.4 42.0 110.2 103.6 356.0
08/05 06:00 10.8 87 8.6 8.7 13 24 1028.2 0 19.7 27.4 42.0 110.2 103.6 356.0
08/05 05:50 10.8 87 8.6 8.7 15 17 1028.3 0 19.7 27.4 42.0 110.2 103.6 356.0
08/05 05:40 10.8 86 8.5 8.6 15 19 1028.3 0 19.5 27.2 41.6 109.0 102.2 351.2
08/05 05:30 10.8 85 8.4 8.4 13 26 1028.3 0 19.3 27.0 41.2 107.9 100.8 346.3
08/05 05:20 10.9 85 8.46 8.5 13 19 1028.2 0 19.4 27.1 41.4 108.4 101.5 348.8
08/05 05:10 10.9 84 8.36 8.3 11 15 1028.3 0 19.2 26.9 41.0 107.3 100.1 344.0
08/05 05:00 10.9 83 8.26 8.1 15 24 1028.3 0 19.0 26.8 40.6 106.2 98.7 339.1
08/05 04:50 10.9 84 8.36 8.3 13 15 1028.3 0 19.2 26.9 41.0 107.3 100.1 344.0
08/05 04:40 11 84 8.41 8.4 13 17 1028.4 0 19.3 27.0 41.1 107.8 100.7 346.0
08/05 04:30 10.8 85 8.4 8.4 15 20 1028.2 0 19.3 27.0 41.2 107.9 100.8 346.3
08/05 04:20 10.6 87 8.49 8.5 19 24 1028.1 0 19.5 27.2 41.7 109.2 102.3 351.5
08/05 04:10 10.5 89 8.63 8.8 15 20 1028.1 0 19.8 27.5 42.3 110.9 104.4 358.8
08/05 04:00 10.4 89 8.58 8.7 15 24 1028.2 0 19.7 27.5 42.2 110.5 103.8 356.9
08/05 03:50 10.3 88 8.43 8.4 15 19 1028.2 0 19.4 27.2 41.6 108.9 101.9 350.0
08/05 03:40 10.5 86 8.34 8.3 17 22 1028.2 0 19.2 27.0 41.1 107.6 100.4 344.7
08/05 03:30 10.5 85 8.25 8.1 15 24 1028.2 0 19.0 26.9 40.7 106.6 99.1 340.4
08/05 03:20 10.6 85 8.3 8.2 17 19 1028.3 0 19.1 26.9 40.9 107.1 99.7 342.4
08/05 03:10 10.6 85 8.3 8.2 11 17 1028.3 0 19.1 26.9 40.9 107.1 99.7 342.4
08/05 03:00 10.5 86 8.34 8.3 13 20 1028.2 0 19.2 27.0 41.1 107.6 100.4 344.7
08/05 02:50 10.4 89 8.58 8.7 15 20 1028.4 0 19.7 27.5 42.2 110.5 103.8 356.9
08/05 02:40 10.3 90 8.62 8.7 13 15 1028.5 0 19.8 27.6 42.4 111.1 104.6 359.4
08/05 02:30 10.2 91 8.66 8.8 13 22 1028.5 0 19.9 27.7 42.6 111.7 105.2 361.8
08/05 02:20 10.2 91 8.66 8.8 17 20 1028.5 0 19.9 27.7 42.6 111.7 105.2 361.8
08/05 02:10 10.2 91 8.66 8.8 15 17 1028.3 0 19.9 27.7 42.6 111.7 105.2 361.7
08/05 02:00 10.3 90 8.62 8.7 17 26 1028.5 0 19.8 27.6 42.4 111.1 104.6 359.4
08/05 01:50 10.5 88 8.54 8.6 19 24 1028.6 0 19.6 27.4 42.0 109.9 103.2 354.6
08/05 01:40 10.4 89 8.58 8.7 13 15 1028.6 0 19.7 27.5 42.2 110.5 103.9 357.0
08/05 01:30 10.3 90 8.62 8.7 15 20 1028.6 0 19.8 27.6 42.4 111.1 104.6 359.4
08/05 01:20 10.1 90 8.51 8.5 13 17 1028.7 0 19.6 27.5 42.0 110.2 103.3 354.9
08/05 01:10 10 91 8.55 8.6 11 15 1028.7 0 19.7 27.6 42.3 110.8 104.0 357.4
08/05 01:00 10 90 8.46 8.4 15 22 1028.7 0 19.5 27.4 41.9 109.8 102.7 353.0
08/05 00:50 10 90 8.46 8.4 13 17 1028.8 0 19.5 27.4 41.9 109.8 102.7 353.0
08/05 00:40 10.1 88 8.32 8.2 13 15 1028.8 0 19.2 27.1 41.2 108.0 100.7 345.7
08/05 00:30 10.5 84 8.15 7.9 17 28 1028.9 0 18.8 26.7 40.3 105.6 97.8 335.7
08/05 00:20 10.8 81 8.01 7.7 20 33 1028.9 0 18.5 26.4 39.6 103.6 95.5 327.8
08/05 00:10 10.8 79 7.81 7.3 15 17 1028.8 0 18.0 26.1 38.8 101.4 92.8 318.2
08/05 00:00 10.8 80 7.91 7.5 15 28 1028.8 0 18.2 26.2 39.2 102.5 94.1 323.0
07/05 23:50 10.8 78 7.71 7.1 11 15 1028.8 0 17.8 25.9 38.4 100.3 91.4 313.5
07/05 23:40 10.7 77 7.56 6.8 17 22 1028.8 0 17.5 25.7 37.8 98.8 89.5 306.9
07/05 23:30 10.6 77 7.52 6.7 15 24 1028.9 0 17.4 25.7 37.7 98.5 89.1 305.4
07/05 23:20 10.6 76 7.42 6.6 15 20 1028.9 0 17.2 25.5 37.3 97.5 87.8 300.7
07/05 23:10 10.5 76 7.37 6.5 17 20 1028.9 0 17.1 25.4 37.1 97.0 87.2 298.8
07/05 23:00 10.5 75 7.28 6.3 13 24 1028.9 0 16.9 25.3 36.8 96.1 86.0 294.6
07/05 22:50 10.4 75 7.23 6.2 13 15 1028.9 0 16.8 25.2 36.6 95.6 85.5 292.6
07/05 22:40 10.2 76 7.23 6.2 17 24 1028.9 0 16.8 25.3 36.7 95.9 85.7 293.3
07/05 22:30 10.3 75 7.18 6.1 17 24 1028.9 0 16.7 25.2 36.4 95.2 84.9 290.6
07/05 22:20 10 76 7.14 6 15 20 1029.2 0 16.6 25.2 36.4 95.2 84.7 290.0
07/05 22:10 10 76 7.14 6 15 17 1029.2 0 16.6 25.2 36.4 95.2 84.7 290.0
07/05 22:00 9.6 78 7.15 6 11 19 1029.1 0 16.7 25.3 36.7 95.8 85.3 291.9
07/05 21:50 9.4 78 7.06 5.8 11 15 1029.3 0 16.5 25.3 36.4 95.1 84.3 288.4
07/05 21:40 9.6 77 7.06 5.8 13 17 1029.3 0 16.5 25.2 36.3 94.8 84.1 287.7
07/05 21:30 9.7 78 7.19 6.1 13 24 1029.2 0 16.7 25.4 36.8 96.1 85.7 293.4
07/05 21:20 9.8 81 7.52 6.7 17 22 1029.4 0 17.5 25.9 38.1 99.6 90.1 308.7
07/05 21:10 9.9 82 7.66 7 17 22 1029.4 0 17.7 26.1 38.6 101.0 91.9 314.9
07/05 21:00 9.9 82 7.66 7 15 24 1029.2 0 17.7 26.1 38.6 101.0 91.9 314.9
07/05 20:50 9.8 81 7.52 6.7 15 19 1029.2 0 17.5 25.9 38.1 99.6 90.1 308.6
07/05 20:40 9.8 79 7.33 6.3 17 24 1029.2 0 17.0 25.6 37.3 97.5 87.5 299.6
07/05 20:30 10 78 7.33 6.3 15 24 1029.1 0 17.0 25.5 37.2 97.2 87.3 298.8
07/05 20:20 10 76 7.14 6 15 19 1029.2 0 16.6 25.2 36.4 95.2 84.7 290.0
07/05 20:10 10.2 75 7.14 6 13 15 1029.3 0 16.6 25.2 36.4 95.0 84.5 289.2
07/05 20:00 10.1 74 7 5.7 13 24 1029.1 0 16.3 25.0 35.8 93.6 82.8 283.1
07/05 19:50 10.2 72 6.85 5.4 13 17 1029.2 0 16.0 24.7 35.2 91.8 80.7 275.8
07/05 19:40 10.4 71 6.84 5.4 17 22 1029.2 0 16.0 24.6 35.1 91.5 80.4 274.7
07/05 19:30 10.4 71 6.84 5.4 13 20 1029.1 0 16.0 24.6 35.1 91.5 80.4 274.6

Last Refresh: 08-May-2026 12:07:28

Bureau of Meteorology